createdAt,value
2016-10-23T00:04:45.732Z,0
2016-10-23T00:09:45.659Z,0
2016-10-23T00:14:45.302Z,0
2016-10-23T00:19:45.564Z,0
2016-10-23T00:24:45.495Z,0
2016-10-23T00:29:45.137Z,0
2016-10-23T00:34:45.389Z,0
2016-10-23T00:39:45.345Z,0
2016-10-23T00:44:44.669Z,0
2016-10-23T00:49:45.225Z,0
2016-10-23T00:54:45.159Z,0
2016-10-23T00:59:44.810Z,0
2016-10-23T01:04:45.062Z,0
2016-10-23T01:09:44.738Z,0
2016-10-23T01:14:44.978Z,0
2016-10-23T01:19:44.888Z,0
2016-10-23T01:24:44.542Z,0
2016-10-23T01:29:44.474Z,0
2016-10-23T01:34:44.716Z,0
2016-10-23T01:39:44.393Z,0
2016-10-23T01:44:44.610Z,0
2016-10-23T01:49:44.241Z,0
2016-10-23T01:54:44.501Z,0
2016-10-23T01:59:44.437Z,0
2016-10-23T02:04:44.383Z,0
2016-10-23T02:09:44.322Z,0
2016-10-23T02:14:44.269Z,0
2016-10-23T02:19:43.902Z,0
2016-10-23T02:24:44.161Z,0
2016-10-23T02:29:43.495Z,0
2016-10-23T02:34:44.033Z,0
2016-10-23T02:39:43.981Z,0
2016-10-23T02:44:43.915Z,0
2016-10-23T02:49:43.559Z,0
2016-10-23T02:54:43.498Z,0
2016-10-23T02:59:43.741Z,0
2016-10-23T03:04:43.697Z,0
2016-10-23T03:09:43.632Z,0
2016-10-23T03:14:43.576Z,0
2016-10-23T03:19:43.206Z,0
2016-10-23T03:24:43.451Z,0
2016-10-23T03:29:43.086Z,0
2016-10-23T03:34:43.337Z,0
2016-10-23T03:39:43.271Z,0
2016-10-23T03:44:43.229Z,0
2016-10-23T03:49:42.549Z,0
2016-10-23T03:54:43.092Z,0
2016-10-23T03:59:43.043Z,0
2016-10-23T04:04:42.681Z,0
2016-10-23T04:09:42.614Z,0
2016-10-23T04:14:42.558Z,0
2016-10-23T04:19:42.501Z,0
2016-10-23T04:24:42.734Z,0
2016-10-23T04:29:42.682Z,0
2016-10-23T04:34:42.633Z,0
2016-10-23T04:39:42.267Z,0
2016-10-23T04:44:42.184Z,0
2016-10-23T04:49:42.477Z,0
2016-10-23T04:54:42.101Z,0
2016-10-23T04:59:42.324Z,0
2016-10-23T05:04:41.957Z,0
2016-10-23T05:09:41.619Z,0
2016-10-23T05:14:41.859Z,0
2016-10-23T05:19:42.109Z,0
2016-10-23T05:24:42.021Z,0
2016-10-23T05:29:41.650Z,0
2016-10-23T05:34:41.284Z,0
2016-10-23T05:39:41.851Z,0
2016-10-23T05:44:41.470Z,0
2016-10-23T05:49:41.403Z,0
2016-10-23T05:54:41.647Z,0
2016-10-23T05:59:41.590Z,0
2016-10-23T06:04:41.581Z,0
2016-10-23T06:09:41.169Z,0
2016-10-23T06:14:41.107Z,0
2016-10-23T06:19:41.037Z,0
2016-10-23T06:24:40.981Z,0
2016-10-23T06:29:41.220Z,0
2016-10-23T06:34:41.158Z,0
2016-10-23T06:39:40.797Z,0
2016-10-23T06:44:40.739Z,0
2016-10-23T06:49:40.709Z,0
2016-10-23T06:54:40.922Z,0
2016-10-23T06:59:40.570Z,0
2016-10-23T07:04:40.196Z,0
2016-10-23T07:09:40.445Z,0
2016-10-23T07:14:40.386Z,0
2016-10-23T07:19:40.324Z,0
2016-10-23T07:24:40.314Z,0
2016-10-23T07:29:40.541Z,0
2016-10-23T07:34:40.452Z,0
2016-10-23T07:39:40.408Z,0
2016-10-23T07:44:40.351Z,0
2016-10-23T07:49:39.671Z,0
2016-10-23T07:54:40.217Z,0
2016-10-23T07:59:39.558Z,0
2016-10-23T08:04:39.822Z,0
2016-10-23T08:09:39.754Z,0
2016-10-23T08:14:39.397Z,0
2016-10-23T08:19:39.643Z,0
2016-10-23T08:24:39.899Z,0
2016-10-23T08:29:39.230Z,0
2016-10-23T08:34:39.776Z,0
2016-10-23T08:39:39.152Z,0
2016-10-23T08:44:39.666Z,0
2016-10-23T08:49:39.317Z,0
2016-10-23T08:54:38.648Z,0
2016-10-23T08:59:39.507Z,0
2016-10-23T09:04:38.885Z,0
2016-10-23T09:09:39.093Z,0
2016-10-23T09:14:39.337Z,0
2016-10-23T09:19:38.973Z,0
2016-10-23T09:24:39.232Z,0
2016-10-23T09:29:39.171Z,0
2016-10-23T09:34:39.146Z,5
2016-10-23T09:39:38.450Z,0
2016-10-23T09:44:39.008Z,5
2016-10-23T09:49:38.646Z,0
2016-10-23T09:54:37.984Z,0
2016-10-23T09:59:38.537Z,0
2016-10-23T10:04:38.798Z,0
2016-10-23T10:09:38.736Z,0
2016-10-23T10:14:38.696Z,0
2016-10-23T10:19:38.648Z,5
2016-10-23T10:24:38.584Z,5
2016-10-23T10:29:38.220Z,0
2016-10-23T10:34:38.170Z,0
2016-10-23T10:39:38.162Z,0
2016-10-23T10:44:38.060Z,0
2016-10-23T10:49:38.024Z,5
2016-10-23T10:54:37.654Z,0
2016-10-23T10:59:37.616Z,5
2016-10-23T11:04:37.860Z,0
2016-10-23T11:09:37.802Z,0
2016-10-23T11:14:38.056Z,5
2016-10-23T11:19:37.408Z,0
2016-10-23T11:24:37.036Z,0
2016-10-23T11:29:37.593Z,0
2016-10-23T11:34:37.838Z,0
2016-10-23T11:39:37.794Z,0
2016-10-23T11:44:37.442Z,0
2016-10-23T11:49:37.384Z,0
2016-10-23T11:54:37.326Z,0
2016-10-23T11:59:36.968Z,0
2016-10-23T12:04:37.204Z,0
2016-10-23T12:09:37.154Z,0
2016-10-23T12:14:37.414Z,0
2016-10-23T12:19:37.057Z,0
2016-10-23T12:24:36.382Z,0
2016-10-23T12:29:36.643Z,0
2016-10-23T12:34:37.880Z,5
2016-10-23T12:39:36.531Z,5
2016-10-23T12:44:36.796Z,5
2016-10-23T12:49:36.420Z,5
2016-10-23T12:54:36.387Z,15
2016-10-23T12:59:36.334Z,15
2016-10-23T13:04:36.896Z,15
2016-10-23T13:09:36.213Z,10
2016-10-23T13:14:36.165Z,30
2016-10-23T13:19:36.412Z,45
2016-10-23T13:24:36.057Z,55
2016-10-23T13:29:36.014Z,50
2016-10-23T13:34:36.557Z,70
2016-10-23T13:39:36.518Z,65
2016-10-23T13:44:35.865Z,60
2016-10-23T13:49:35.794Z,30
2016-10-23T13:54:36.057Z,25
2016-10-23T13:59:35.685Z,20
2016-10-23T14:04:36.267Z,10
2016-10-23T14:09:36.195Z,5
2016-10-23T14:14:35.847Z,5
2016-10-23T14:19:35.491Z,5
2016-10-23T14:24:35.801Z,5
2016-10-23T14:29:36.009Z,5
2016-10-23T14:34:35.331Z,10
2016-10-23T14:39:35.891Z,5
2016-10-23T14:44:34.945Z,0
2016-10-23T14:49:35.799Z,5
2016-10-23T14:54:35.443Z,0
2016-10-23T14:59:35.391Z,0
2016-10-23T15:04:35.344Z,0
2016-10-23T15:09:35.591Z,0
2016-10-23T15:14:35.553Z,0
2016-10-23T15:19:34.884Z,0
2016-10-23T15:24:35.142Z,0
2016-10-23T15:29:35.078Z,0
2016-10-23T15:34:35.024Z,0
2016-10-23T15:39:35.270Z,0
2016-10-23T15:44:34.913Z,0
2016-10-23T15:49:34.594Z,0
2016-10-23T15:54:34.494Z,0
2016-10-23T15:59:35.062Z,0
2016-10-23T16:04:34.698Z,0
2016-10-23T16:09:34.637Z,0
2016-10-23T16:14:34.291Z,0
2016-10-23T16:19:34.862Z,0
2016-10-23T16:24:34.493Z,0
2016-10-23T16:29:34.120Z,0
2016-10-23T16:34:34.067Z,0
2016-10-23T16:39:34.334Z,0
2016-10-23T16:44:33.653Z,0
2016-10-23T16:49:34.518Z,0
2016-10-23T16:54:33.866Z,0
2016-10-23T16:59:33.486Z,0
2016-10-23T17:04:33.755Z,0
2016-10-23T17:09:34.009Z,0
2016-10-23T17:14:33.981Z,0
2016-10-23T17:19:33.576Z,0
2016-10-23T17:24:33.521Z,0
2016-10-23T17:29:33.785Z,0
2016-10-23T17:34:34.057Z,0
2016-10-23T17:39:33.403Z,0
2016-10-23T17:44:33.647Z,0
2016-10-23T17:49:33.597Z,0
2016-10-23T17:54:33.231Z,0
2016-10-23T17:59:33.787Z,0
2016-10-23T18:04:33.742Z,0
2016-10-23T18:09:33.427Z,0
2016-10-23T18:14:33.349Z,0
2016-10-23T18:19:33.619Z,0
2016-10-23T18:24:33.250Z,0
2016-10-23T18:29:32.886Z,0
2016-10-23T18:34:33.148Z,0
2016-10-23T18:39:33.110Z,0
2016-10-23T18:44:32.744Z,0
2016-10-23T18:49:33.005Z,0
2016-10-23T18:54:32.659Z,0
2016-10-23T18:59:32.619Z,0
2016-10-23T19:04:32.251Z,0
2016-10-23T19:09:33.122Z,0
2016-10-23T19:14:33.129Z,0
2016-10-23T19:19:32.783Z,0
2016-10-23T19:24:32.731Z,0
2016-10-23T19:29:32.933Z,0
2016-10-23T19:34:32.303Z,0
2016-10-23T19:39:31.955Z,0
2016-10-23T19:44:32.528Z,0
2016-10-23T19:49:32.441Z,0
2016-10-23T19:54:31.787Z,0
2016-10-23T19:59:32.036Z,0
2016-10-23T20:04:32.592Z,0
2016-10-23T20:09:31.967Z,0
2016-10-23T20:14:32.203Z,0
2016-10-23T20:19:32.162Z,0
2016-10-23T20:24:32.451Z,0
2016-10-23T20:29:32.428Z,0
2016-10-23T20:34:31.713Z,0
2016-10-23T20:39:32.284Z,0
2016-10-23T20:44:31.926Z,0
2016-10-23T20:49:32.199Z,0
2016-10-23T20:54:32.140Z,0
2016-10-23T20:59:32.087Z,0
2016-10-23T21:04:31.161Z,0
2016-10-23T21:09:31.688Z,0
2016-10-23T21:14:31.654Z,0
2016-10-23T21:19:31.293Z,0
2016-10-23T21:24:31.578Z,0
2016-10-23T21:29:31.192Z,0
2016-10-23T21:34:31.147Z,0
2016-10-23T21:39:31.400Z,0
2016-10-23T21:44:31.358Z,0
2016-10-23T21:49:31.332Z,0
2016-10-23T21:54:31.276Z,0
2016-10-23T21:59:31.529Z,0
2016-10-23T22:04:30.566Z,0
2016-10-23T22:09:31.120Z,0
2016-10-23T22:14:31.075Z,0
2016-10-23T22:19:30.732Z,0
2016-10-23T22:24:30.981Z,0
2016-10-23T22:29:30.626Z,0
2016-10-23T22:34:30.882Z,0
2016-10-23T22:39:30.825Z,0
2016-10-23T22:44:30.472Z,0
2016-10-23T22:49:31.034Z,0
2016-10-23T22:54:30.687Z,0
2016-10-23T22:59:30.928Z,0
2016-10-23T23:04:30.580Z,0
2016-10-23T23:09:30.530Z,0
2016-10-23T23:14:30.171Z,0
2016-10-23T23:19:30.717Z,0
2016-10-23T23:24:29.756Z,0
2016-10-23T23:29:30.309Z,0
2016-10-23T23:34:29.955Z,0
2016-10-23T23:39:29.913Z,0
2016-10-23T23:44:30.462Z,0
2016-10-23T23:49:30.407Z,0
2016-10-23T23:54:30.351Z,0
2016-10-23T23:59:30.035Z,0
